Airfield :
LOGIN :

Register | Disclaimer

   EN    FR    IT 

 










Legend :    VFR   Marginal VFR   IFR   Intensive IFR   Very Intensive IFR
Visi :
Ceiling :
>= 8 km
>= 3000ft
5 to 8 km
1000 to 3000 ft
1500m to 5 km
500 to 1000 ft
800 to 1500m
200 to 500 ft
< 800m
< 200 ft
Symbols :   Thunderstorms  Fog  Heavy snow  Heavy precipitations  Wind > 20 kt
SIGMETs :     Misc.  Thunderstorms  Icing  Turbulence  Mountain Waves  Volcanic Ashes







- Airport Elevation : 171 ft
- IATA code : EGC
- Download approach charts


LFBE - Bergerac

CURRENT METAR :
  • 221800Z AUTO 22002KT CAVOK 17/14 Q1021 NOSIG

EXPIRED METARs :
  • 221730Z AUTO 24004KT CAVOK 18/14 Q1021 NOSIG
  • 221700Z AUTO 25006KT CAVOK 19/14 Q1022 NOSIG
  • 221630Z AUTO 28008KT CAVOK 19/15 Q1021 NOSIG
  • 221600Z AUTO 27009KT CAVOK 20/15 Q1021 NOSIG
  • 221530Z AUTO 25007KT 9999 SCT028 BKN100 BKN120 20/15 Q1021 NOSIG

TAF AMD TAF LFBE
Valid from the 22 at 12:00 until the 23 at 12:00 UTC


221210Z 2212/2312 30007KT CAVOK
PROB30
TEMPO 2212/2213 BKN010
TEMPO 2303/2307 VRB02KT 1500 BR OVC002
No reported NOTAMs for that airfield.



MET'MAP, your aeronautical weather chart ! - Copyright ORBIFLY December 2007 - Disclaimer

ORBIFLY MET'MAP TEAM :

Programming & Development : Alexandra Zaïnal
Concept & Development : Baudouin d'Aumeries
Co-Development & Prog : Marc-Olivier Méhu
Technical & hardware support : Manuel Goepfert

Contact : metmap@orbifly.com




SOURCES & CREDITS :

   NOAA